Data for 04/12/2006

Time Sea-Level Adjusted Pressure Absolute Pressure Temperature Relative Humidity Dew Point   
(mb) (inHg) (mb) (inHg) (C) (F) (%) (C) (F)
00:05 1017 30.03 846 24.98 6.1 43 61 -0.9 30.4
00:10 1017 30.03 846 24.98 6 42.8 62 -0.7 30.7
00:15 1017 30.03 846 24.98 6 42.8 61 -0.8 30.5
00:20 1017 30.03 846 24.98 5.9 42.6 64 -0.4 31.2
00:25 1017 30.03 846 24.98 5.7 42.2 63 -0.8 30.5
00:30 1017 30.03 846 24.98 5.6 42 63 -1 30.2
00:35 1017 30.03 846 24.98 5.5 41.9 63 -1.1 30.1
00:40 1017 30.03 846 24.98 5.7 42.2 60 -1.6 29.1
00:45 1017 30.03 846 24.98 5.7 42.2 61 -1.2 29.8
00:50 1017 30.03 846 24.98 5.5 41.9 61 -1.3 29.6
00:55 1017 30.03 846 24.98 5.4 41.7 63 -1 30.2
01:00 1017 30.03 846 24.98 4.8 40.6 64 -1.4 29.5
01:05 1017 30.03 846 24.98 4.6 40.3 64 -1.7 29
01:10 1017 30.03 846 24.98 4.6 40.3 64 -1.7 29
01:15 1017 30.03 846 24.98 4.4 39.9 63 -2 28.4
01:20 1017 30.03 846 24.98 4.6 40.3 61 -2.1 28.1
01:25 1017 30.03 846 24.98 4.8 40.7 61 -2.1 28.3
01:30 1017 30.03 846 24.98 4.6 40.3 61 -2.3 27.9
01:35 1017 30.03 846 24.98 4.9 40.8 59 -2.4 27.7
01:40 1017 30.03 846 24.98 4.8 40.7 60 -2.3 27.9
01:45 1017 30.03 846 24.98 4.9 40.8 59 -2.5 27.5
01:50 1017 30.03 846 24.98 4.9 40.7 59 -2.4 27.7
01:55 1017 30.03 846 24.98 4.7 40.4 60 -2.4 27.8
02:00 1017 30.03 846 24.98 4.4 39.9 62 -2.2 28.1
02:05 1017 30.03 846 24.98 4.4 39.9 61 -2.5 27.5
02:10 1017 30.03 846 24.98 4.4 39.9 60 -2.7 27.2
02:15 1017 30.03 847 25.01 4.6 40.3 59 -2.7 27.2
02:20 1017 30.03 847 25.01 4.7 40.5 59 -2.6 27.3
02:25 1017 30.03 847 25.01 4.1 39.3 64 -2 28.3
02:30 1017 30.03 847 25.01 3.2 37.8 66 -2.5 27.4
02:35 1017 30.03 847 25.01 3.3 38 65 -2.6 27.3
02:40 1018 30.06 847 25.01 3.5 38.4 62 -3 26.6
02:45 1018 30.06 847 25.01 4.1 39.4 60 -3 26.6
02:50 1018 30.06 847 25.01 4.4 40 58 -3 26.6
02:55 1018 30.06 847 25.01 4.3 39.8 58 -3.1 26.5
03:00 1018 30.06 847 25.01 4.1 39.4 60 -3 26.5
03:05 1018 30.06 847 25.01 3.8 38.8 62 -2.8 26.9
03:10 1018 30.06 847 25.01 3.3 37.9 64 -3 26.6
03:15 1018 30.06 847 25.01 3 37.5 65 -2.9 26.8
03:20 1018 30.06 847 25.01 2.6 36.7 67 -2.9 26.8
03:25 1018 30.06 847 25.01 2.6 36.6 66 -3.1 26.4
03:30 1018 30.06 847 25.01 2.6 36.7 67 -2.9 26.7
03:35 1018 30.06 847 25.01 2.4 36.2 68 -2.9 26.8
03:40 1018 30.06 847 25.01 2.4 36.4 67 -3.2 26.3
03:45 1018 30.06 847 25.01 2.7 36.8 66 -3.1 26.4
03:50 1018 30.06 847 25.01 2.6 36.7 65 -3.3 26.1
03:55 1018 30.06 847 25.01 2.8 37 65 -3.2 26.3
04:00 1018 30.06 847 25.01 2.5 36.6 65 -3.3 26.1
04:05 1018 30.06 847 25.01 2.7 36.8 64 -3.4 25.9
04:10 1018 30.06 847 25.01 2.6 36.7 65 -3.3 26.1
04:15 1018 30.06 847 25.01 2.4 36.4 66 -3.3 26.1
04:20 1018 30.06 847 25.01 2.2 36 67 -3.3 26.1
04:25 1018 30.06 847 25.01 2 35.5 68 -3.2 26.2
04:30 1018 30.06 847 25.01 1.9 35.3 69 -3.2 26.2
04:35 1018 30.06 847 25.01 2 35.5 69 -3.1 26.4
04:40 1018 30.06 847 25.01 1.9 35.5 68 -3.3 26
04:45 1018 30.06 847 25.01 1.9 35.4 69 -3.2 26.2
04:50 1018 30.06 847 25.01 1.9 35.5 67 -3.5 25.8
04:55 1018 30.06 847 25.01 2.4 36.4 65 -3.4 25.9
05:00 1018 30.06 847 25.01 2.3 36.2 67 -3.2 26.2
05:05 1018 30.06 847 25.01 2.3 36.2 67 -3.3 26.1
05:10 1018 30.06 847 25.01 2.1 35.8 67 -3.3 26.1
05:15 1018 30.06 847 25.01 2 35.6 69 -3.2 26.3
05:20 1018 30.06 847 25.01 1.8 35.2 70 -3.2 26.3
05:25 1018 30.06 847 25.01 2 35.6 69 -3.1 26.5
05:30 1018 30.06 848 25.04 1.9 35.5 69 -3.1 26.3
05:35 1018 30.06 848 25.04 2.1 35.8 69 -2.9 26.8
05:40 1018 30.06 848 25.04 2 35.6 70 -2.8 26.9
05:45 1018 30.06 848 25.04 1.9 35.4 70 -3 26.7
05:50 1018 30.06 848 25.04 1.7 35 71 -3.1 26.4
05:55 1018 30.06 848 25.04 1.9 35.4 70 -3 26.7
06:00 1018 30.06 848 25.04 1.7 35.1 71 -3.1 26.5
06:05 1018 30.06 848 25.04 2 35.7 69 -3 26.6
06:10 1018 30.06 848 25.04 2.1 35.7 69 -3 26.6
06:15 1019 30.09 848 25.04 2.3 36.1 68 -3.1 26.5
06:20 1019 30.09 848 25.04 2.2 35.9 67 -3.3 26.1
06:25 1019 30.09 848 25.04 2.4 36.3 66 -3.3 26.1
06:30 1019 30.09 848 25.04 2.4 36.3 66 -3.3 26
06:35 1019 30.09 848 25.04 2.3 36.2 66 -3.4 25.8
06:40 1019 30.09 848 25.04 2.4 36.3 65 -3.4 25.8
06:45 1019 30.09 848 25.04 2.5 36.5 64 -3.6 25.6
06:50 1019 30.09 848 25.04 2.4 36.2 65 -3.5 25.8
06:55 1019 30.09 848 25.04 2.3 36.2 66 -3.4 25.8
07:00 1019 30.09 848 25.04 2.3 36.2 66 -3.4 25.9
07:05 1019 30.09 848 25.04 2.3 36.1 66 -3.3 26
07:10 1019 30.09 848 25.04 2.4 36.3 67 -3.2 26.2
07:15 1019 30.09 848 25.04 2.4 36.2 66 -3.4 26
07:20 1019 30.09 848 25.04 2.6 36.7 64 -3.5 25.6
07:25 1019 30.09 848 25.04 2.8 37 64 -3.4 25.9
07:30 1019 30.09 848 25.04 2.8 37.1 64 -3.2 26.2
07:35 1019 30.09 848 25.04 2.8 37.1 64 -3.2 26.2
07:40 1019 30.09 848 25.04 2.9 37.2 64 -3.2 26.2
07:45 1019 30.09 848 25.04 3 37.4 64 -3.1 26.3
07:50 1019 30.09 848 25.04 2.8 37.1 65 -3.1 26.4
07:55 1019 30.09 848 25.04 2.8 37.1 64 -3.3 26.1
08:00 1019 30.09 848 25.04 3 37.4 63 -3.2 26.2
08:05 1019 30.09 848 25.04 3.2 37.8 62 -3.4 25.9
08:10 1019 30.09 848 25.04 3.7 38.7 60 -3.4 25.9
08:15 1019 30.09 848 25.04 4.3 39.7 58 -3.2 26.3
08:20 1019 30.09 848 25.04 4.6 40.3 57 -3.1 26.5
08:25 1019 30.09 848 25.04 5 40.9 57 -2.9 26.7
08:30 1019 30.09 848 25.04 5.1 41.2 56 -2.9 26.7
08:35 1019 30.09 848 25.04 5.3 41.5 56 -2.9 26.8
08:40 1019 30.09 848 25.04 5.7 42.3 55 -2.6 27.3
08:45 1019 30.09 848 25.04 6.1 43.1 54 -2.6 27.4
08:50 1019 30.09 848 25.04 6.5 43.7 52 -2.7 27.2
08:55 1019 30.09 848 25.04 6.8 44.3 50 -2.8 27
09:00 1019 30.09 848 25.04 7 44.6 51 -2.4 27.6
09:05 1019 30.09 848 25.04 7.4 45.2 49 -2.6 27.4
09:10 1019 30.09 848 25.04 8 46.5 47 -2.6 27.4
09:15 1019 30.09 848 25.04 8.5 47.2 46 -2.3 27.8
09:20 1019 30.09 848 25.04 9.3 48.8 44 -2.4 27.8
09:25 1019 30.09 848 25.04 9.7 49.4 42 -2.6 27.3
09:30 1019 30.09 848 25.04 10.1 50.3 40 -2.7 27.1
09:35 1019 30.09 848 25.04 10.7 51.3 39 -2.5 27.4
09:40 1019 30.09 848 25.04 10.5 50.9 41 -2.1 28.2
09:45 1019 30.09 848 25.04 10 49.9 38 -3.6 25.5
09:50 1019 30.09 848 25.04 10.3 50.5 36 -4.3 24.3
09:55 1019 30.09 848 25.04 10.8 51.4 34 -4.5 23.9
10:00 1019 30.09 848 25.04 10.7 51.2 34 -4.6 23.7
10:05 1019 30.09 848 25.04 10.5 50.9 33 -5.1 22.8
10:10 1019 30.09 848 25.04 10.9 51.6 34 -4.3 24.2
10:15 1019 30.09 848 25.04 11.3 52.3 34 -3.9 24.9
10:20 1019 30.09 848 25.04 11.9 53.3 32 -4.2 24.4
10:25 1019 30.09 848 25.04 12.2 54 31 -4.5 23.8
10:30 1019 30.09 848 25.04 12.4 54.2 32 -4 24.8
10:35 1019 30.09 848 25.04 11.4 52.5 34 -3.7 25.3
10:40 1019 30.09 848 25.04 12 53.6 32 -4.1 24.6
10:45 1019 30.09 848 25.04 12.6 54.6 32 -3.5 25.7
10:50 1019 30.09 848 25.04 12.3 54.2 37 -1.9 28.6
10:55 1019 30.09 848 25.04 12.2 54 36 -2.5 27.5
11:00 1019 30.09 848 25.04 12.1 53.7 34 -3.1 26.4
11:05 1019 30.09 848 25.04 11.9 53.3 35 -2.9 26.7
11:10 1019 30.09 848 25.04 12.2 53.9 30 -5 23.1
11:15 1019 30.09 848 25.04 12.1 53.8 31 -4.3 24.3
11:20 1019 30.09 848 25.04 13.4 56.1 26 -5.8 21.5
11:25 1019 30.09 848 25.04 14.3 57.7 26 -4.9 23.2
11:30 1019 30.09 848 25.04 12.9 55.1 28 -5.2 22.7
11:35 1019 30.09 848 25.04 13.6 56.5 27 -5 23
11:40 1019 30.09 848 25.04 13.9 57.1 26 -5.4 22.3
11:45 1019 30.09 848 25.04 14.6 58.2 25 -5 23
11:50 1019 30.09 848 25.04 14.3 57.7 26 -4.8 23.4
11:55 1019 30.09 848 25.04 14.4 57.9 27 -4.2 24.5
12:00 1019 30.09 848 25.04 15 59 26 -4.5 23.9
12:05 1019 30.09 848 25.04 15.9 60.7 25 -3.8 25.1
12:10 1018 30.06 848 25.04 16 60.7 25 -4 24.7
12:15 1018 30.06 848 25.04 15.1 59.3 27 -3.5 25.6
12:20 1018 30.06 847 25.01 14.4 57.9 28 -3.8 25.1
12:25 1018 30.06 847 25.01 15.7 60.2 26 -3.9 25
12:30 1018 30.06 847 25.01 16.4 61.6 24 -3.9 24.9
12:35 1018 30.06 847 25.01 16.1 61 25 -3.8 25.2
12:40 1018 30.06 847 25.01 16.3 61.3 25 -3.5 25.7
12:45 1018 30.06 847 25.01 15.7 60.3 26 -3.5 25.7
12:50 1018 30.06 847 25.01 16 60.9 25 -3.9 25.1
12:55 1018 30.06 847 25.01 17.2 62.9 25 -3.1 26.5
13:00 1018 30.06 847 25.01 17.3 63.1 24 -3.3 26.1
13:05 1018 30.06 847 25.01 16.1 61 27 -2.8 27
13:10 1017 30.03 847 25.01 15.3 59.6 28 -2.9 26.8
13:15 1017 30.03 847 25.01 15 59.1 27 -3.6 25.5
13:20 1017 30.03 847 25.01 16.8 62.2 25 -3.4 25.8
13:25 1017 30.03 846 24.98 17.3 63.1 25 -2.9 26.8
13:30 1017 30.03 846 24.98 17.3 63.1 24 -3.1 26.3
13:35 1017 30.03 846 24.98 17.4 63.3 24 -3 26.6
13:40 1017 30.03 846 24.98 17.3 63.1 24 -3.3 26.1
13:45 1017 30.03 846 24.98 18.3 65 23 -2.8 26.9
13:50 1017 30.03 846 24.98 18.3 65 24 -2.2 28
13:55 1017 30.03 846 24.98 17.2 63 25 -3 26.7
14:00 1017 30.03 846 24.98 17.4 63.3 25 -2.7 27.2
14:05 1017 30.03 846 24.98 17.6 63.6 25 -2.5 27.5
14:10 1017 30.03 846 24.98 18 64.5 25 -2.1 28.1
14:15 1017 30.03 846 24.98 18.1 64.5 25 -2.2 28.1
14:20 1017 30.03 846 24.98 17.3 63.1 26 -2.3 27.8
14:25 1017 30.03 846 24.98 17 62.6 27 -1.8 28.8
14:30 1017 30.03 846 24.98 17.5 63.6 25 -2.6 27.4
14:35 1017 30.03 846 24.98 18.1 64.6 25 -2 28.4
14:40 1017 30.03 846 24.98 17.7 63.8 26 -2.2 28.1
14:45 1017 30.03 846 24.98 17 62.6 27 -1.9 28.6
14:50 1017 30.03 846 24.98 16.5 61.7 26 -2.9 26.8
14:55 1016 30 846 24.98 16.1 60.9 24 -4.2 24.5
15:00 1016 30 846 24.98 16 60.9 24 -4.4 24
15:05 1016 30 845 24.95 15.6 60.1 26 -3.6 25.5
15:10 1016 30 845 24.95 15.7 60.2 25 -4 24.9
15:15 1016 30 845 24.95 15.9 60.6 25 -4.2 24.5
15:20 1016 30 845 24.95 16.3 61.3 26 -3.3 26
15:25 1016 30 845 24.95 16.4 61.4 25 -3.6 25.6
15:30 1016 30 845 24.95 15.9 60.7 25 -4.1 24.7
15:35 1016 30 845 24.95 16 60.8 26 -3.5 25.7
15:40 1016 30 845 24.95 15.7 60.2 27 -3.1 26.3
15:45 1016 30 845 24.95 15.6 60.1 28 -2.8 26.9
15:50 1016 30 845 24.95 15.5 59.9 27 -3.4 26
15:55 1016 30 845 24.95 15.5 59.8 27 -3.2 26.2
16:00 1016 30 845 24.95 15.7 60.2 26 -3.9 25
16:05 1016 30 845 24.95 15.7 60.3 27 -3.1 26.4
16:10 1016 30 845 24.95 15.8 60.5 25 -4.1 24.6
16:15 1015 29.97 845 24.95 15.9 60.5 26 -3.4 25.8
16:20 1015 29.97 845 24.95 15.8 60.5 27 -3.1 26.5
16:25 1015 29.97 845 24.95 15.7 60.2 27 -3 26.6
16:30 1015 29.97 845 24.95 15.6 60.1 27 -3.2 26.3
16:35 1015 29.97 845 24.95 15.5 60 27 -3.2 26.2
16:40 1015 29.97 845 24.95 15.5 59.9 27 -3.3 26.1
16:45 1015 29.97 845 24.95 15.5 59.8 27 -3.4 25.9
16:50 1015 29.97 845 24.95 15.6 60 27 -3.4 25.9
16:55 1015 29.97 844 24.92 15.8 60.4 27 -3 26.6
17:00 1015 29.97 844 24.92 16 60.8 27 -2.9 26.9
17:05 1015 29.97 845 24.95 15.8 60.4 29 -2.3 27.8
17:10 1015 29.97 845 24.95 15.6 60.1 29 -2.4 27.7
17:15 1015 29.97 845 24.95 15.7 60.2 29 -2.4 27.6
17:20 1015 29.97 844 24.92 15.5 59.9 30 -2.1 28.2
17:25 1015 29.97 844 24.92 15.2 59.4 31 -1.7 28.9
17:30 1015 29.97 844 24.92 14.8 58.7 31 -2 28.3
17:35 1015 29.97 844 24.92 14.6 58.3 32 -1.8 28.7
17:40 1015 29.97 844 24.92 14.5 58 32 -1.7 28.9
17:45 1015 29.97 844 24.92 14.3 57.7 33 -1.8 28.8
17:50 1015 29.97 844 24.92 14.2 57.5 35 -0.8 30.5
17:55 1015 29.97 844 24.92 13.9 57.1 36 -0.7 30.7
18:00 1015 29.97 844 24.92 13.9 57 36 -1.1 30.1
18:05 1015 29.97 844 24.92 13.8 56.9 34 -1.5 29.3
18:10 1015 29.97 844 24.92 13.8 56.9 35 -1.3 29.6
18:15 1015 29.97 844 24.92 13.8 56.9 33 -2.1 28.2
18:20 1015 29.97 844 24.92 14 57.1 33 -1.8 28.8
18:25 1015 29.97 844 24.92 14.1 57.3 34 -1.5 29.2
18:30 1015 29.97 844 24.92 14.1 57.4 32 -2.1 28.2
18:35 1015 29.97 844 24.92 14.1 57.3 34 -1.5 29.3
18:40 1015 29.97 844 24.92 13.9 56.9 35 -1.3 29.7
18:45 1015 29.97 844 24.92 13.7 56.6 35 -1.4 29.5
18:50 1015 29.97 844 24.92 13.6 56.5 36 -0.9 30.3
18:55 1015 29.97 844 24.92 13.5 56.4 37 -0.9 30.4
19:00 1015 29.97 844 24.92 13.4 56.2 37 -0.7 30.7
19:05 1015 29.97 844 24.92 13.4 56.1 38 -0.6 31
19:10 1015 29.97 844 24.92 13.2 55.8 39 -0.3 31.4
19:15 1015 29.97 844 24.92 13.1 55.7 40 -0.1 31.9
19:20 1015 29.97 844 24.92 13 55.4 40 -0.1 31.9
19:25 1015 29.97 844 24.92 13 55.4 41 -0 32
19:30 1015 29.97 844 24.92 13 55.3 40 -0.1 31.8
19:35 1015 29.97 844 24.92 13 55.4 40 -0.2 31.7
19:40 1015 29.97 844 24.92 12.9 55.3 42 0.3 32.5
19:45 1015 29.97 844 24.92 12.8 55 44 0.9 33.6
19:50 1015 29.97 844 24.92 12.5 54.5 44 0.7 33.3
19:55 1015 29.97 844 24.92 12.4 54.3 45 1 33.8
20:00 1015 29.97 844 24.92 12.2 54 45 0.7 33.3
20:05 1015 29.97 844 24.92 12.2 54 46 1 33.8
20:10 1015 29.97 844 24.92 12.1 53.9 46 0.9 33.6
20:15 1015 29.97 844 24.92 12 53.6 47 1.1 33.9
20:20 1015 29.97 844 24.92 12 53.6 47 1.1 34
20:25 1015 29.97 844 24.92 11.9 53.4 48 1.3 34.3
20:30 1015 29.97 844 24.92 11.8 53.2 49 1.5 34.7
20:35 1015 29.97 844 24.92 11.8 53.2 47 0.9 33.7
20:40 1015 29.97 844 24.92 11.9 53.5 47 1.1 34
20:45 1015 29.97 844 24.92 12.1 53.7 47 1.1 34
20:50 1015 29.97 844 24.92 12.1 53.9 47 1.1 34
20:55 1015 29.97 844 24.92 12.1 53.9 47 1.1 34
21:00 1015 29.97 844 24.92 12.1 53.7 47 1.2 34.2
21:05 1015 29.97 844 24.92 12 53.6 48 1.5 34.7
21:10 1015 29.97 844 24.92 11.9 53.4 48 1.3 34.4
21:15 1015 29.97 844 24.92 11.9 53.5 48 1.2 34.2
21:20 1015 29.97 844 24.92 12 53.7 48 1.4 34.4
21:25 1015 29.97 844 24.92 12 53.6 48 1.4 34.6
21:30 1015 29.97 844 24.92 11.9 53.5 49 1.5 34.8
21:35 1015 29.97 844 24.92 11.9 53.4 49 1.5 34.7
21:40 1015 29.97 844 24.92 11.9 53.4 48 1.3 34.4
21:45 1015 29.97 844 24.92 12 53.7 48 1.3 34.3
21:50 1015 29.97 844 24.92 12.1 53.7 48 1.5 34.8
21:55 1015 29.97 844 24.92 11.9 53.5 48 1.4 34.5
22:00 1015 29.97 844 24.92 11.9 53.4 49 1.6 34.8
22:05 1015 29.97 844 24.92 11.9 53.5 49 1.5 34.8
22:10 1015 29.97 844 24.92 12.1 53.7 48 1.6 34.8
22:15 1015 29.97 844 24.92 12 53.6 49 1.7 35.1
22:20 1015 29.97 844 24.92 12 53.5 49 1.6 34.9
22:25 1015 29.97 844 24.92 12.1 53.7 49 1.7 35.1
22:30 1015 29.97 844 24.92 12 53.5 50 1.9 35.4
22:35 1015 29.97 844 24.92 11.8 53.2 51 2 35.6
22:40 1015 29.97 844 24.92 11.7 53 51 2 35.6
22:45 1015 29.97 844 24.92 11.5 52.7 51 1.8 35.3
22:50 1015 29.97 844 24.92 11.5 52.8 51 1.9 35.3
22:55 1015 29.97 844 24.92 11.6 52.9 50 1.6 34.9
23:00 1015 29.97 844 24.92 11.8 53.3 50 1.7 35
23:05 1015 29.97 844 24.92 11.9 53.4 50 1.7 35.1
23:10 1015 29.97 844 24.92 11.8 53.3 50 1.7 35.1
23:15 1015 29.97 844 24.92 11.8 53.3 49 1.7 35
23:20 1015 29.97 844 24.92 11.9 53.4 49 1.6 34.9
23:25 1015 29.97 844 24.92 12 53.5 49 1.5 34.7
23:30 1015 29.97 844 24.92 12 53.7 48 1.5 34.8
23:35 1015 29.97 844 24.92 12.1 53.8 48 1.5 34.6
23:40 1015 29.97 844 24.92 12.1 53.9 48 1.5 34.7
23:45 1015 29.97 844 24.92 12.1 53.8 47 1.3 34.3
23:50 1015 29.97 844 24.92 12.3 54.1 47 1.2 34.2
23:55 1015 29.97 844 24.92 12.3 54.1 46 1 33.8
24:00 1015 29.97 844 24.92 12.4 54.2 46 1.2 34.1